Time;durP1;ratioP1;P1;durP2;ratioP2;P2;SDS_P1;SDS_P2;PMS_P1;PMS_P2;Temp;Humidity;BMP_temperature;BMP_pressure;BME280_temperature;BME280_humidity;BME280_pressure;Samples;Min_cycle;Max_cycle;Signal;HPM_P1;HPM_P2
2023/07/19 00:00:49;;;;;;;24.42;22.45;;;17.90;85.90;;;;;;5105395;28;20093;-74
2023/07/19 00:03:15;;;;;;;25.25;23.35;;;17.80;86.20;;;;;;5107961;28;20119;-73
2023/07/19 00:05:40;;;;;;;23.27;21.63;;;17.80;86.30;;;;;;5107196;28;20078;-73
2023/07/19 00:08:06;;;;;;;25.13;23.08;;;17.80;87.30;;;;;;5086498;28;20396;-73
2023/07/19 00:10:32;;;;;;;24.90;22.90;;;17.60;87.10;;;;;;5103133;28;20533;-73
2023/07/19 00:12:57;;;;;;;23.73;21.95;;;17.70;88.20;;;;;;5102663;28;20505;-72
2023/07/19 00:15:24;;;;;;;23.88;21.83;;;17.70;87.80;;;;;;5107077;28;20028;-72
2023/07/19 00:17:49;;;;;;;24.85;23.17;;;17.70;87.30;;;;;;5087901;28;20027;-73
2023/07/19 00:20:15;;;;;;;26.50;24.50;;;17.70;87.80;;;;;;5107838;27;20031;-73
2023/07/19 00:22:41;;;;;;;24.20;22.30;;;17.60;87.30;;;;;;5105437;28;20059;-72
2023/07/19 00:25:07;;;;;;;25.27;23.17;;;17.60;87.90;;;;;;5107038;28;20028;-73
2023/07/19 00:27:33;;;;;;;26.63;24.48;;;17.50;88.30;;;;;;5088198;28;20036;-72
2023/07/19 00:29:59;;;;;;;25.95;23.88;;;17.60;88.90;;;;;;5103884;28;20034;-73
2023/07/19 00:32:24;;;;;;;26.05;24.35;;;17.60;88.70;;;;;;5087362;28;20612;-73
2023/07/19 00:34:50;;;;;;;24.05;22.23;;;17.50;87.90;;;;;;5108470;28;20024;-73
2023/07/19 00:37:16;;;;;;;22.58;20.90;;;17.40;87.70;;;;;;5106801;27;20113;-73
2023/07/19 00:39:42;;;;;;;23.48;21.40;;;17.40;87.50;;;;;;5105950;28;20110;-72
2023/07/19 00:42:08;;;;;;;24.77;22.95;;;17.40;87.50;;;;;;5103957;28;20463;-73
2023/07/19 00:44:33;;;;;;;23.73;22.02;;;17.30;87.60;;;;;;5103550;28;20039;-73
2023/07/19 00:47:02;;;;;;;24.30;22.45;;;17.30;87.40;;;;;;5104527;28;20027;-73
2023/07/19 00:49:29;;;;;;;25.55;23.70;;;17.10;87.80;;;;;;5105420;28;20071;-73
2023/07/19 00:51:56;;;;;;;24.45;22.75;;;17.20;88.50;;;;;;5103757;28;20024;-73
2023/07/19 00:54:21;;;;;;;25.85;23.95;;;17.20;88.50;;;;;;5086013;28;20074;-72
2023/07/19 00:56:48;;;;;;;25.67;23.73;;;17.30;88.30;;;;;;5102276;28;20059;-73
2023/07/19 00:59:16;;;;;;;25.15;23.30;;;17.30;88.30;;;;;;5102330;28;20032;-72
2023/07/19 01:01:44;;;;;;;29.05;26.80;;;17.30;88.70;;;;;;5104104;28;20070;-73
2023/07/19 01:04:10;;;;;;;27.35;25.45;;;17.20;88.90;;;;;;5105469;28;20032;-72
2023/07/19 01:06:36;;;;;;;28.67;26.52;;;17.10;89.10;;;;;;5106726;28;20034;-72
2023/07/19 01:09:01;;;;;;;26.15;24.23;;;17.10;89.30;;;;;;5101009;28;20028;-73
2023/07/19 01:11:27;;;;;;;30.33;28.38;;;17.10;89.00;;;;;;5058748;28;20046;-72
2023/07/19 01:13:54;;;;;;;30.52;28.55;;;17.10;89.40;;;;;;5104754;28;20035;-72
2023/07/19 01:16:20;;;;;;;32.17;30.02;;;17.20;89.40;;;;;;5103946;28;20032;-73
2023/07/19 01:18:46;;;;;;;28.73;26.90;;;17.10;90.00;;;;;;5105125;28;20081;-72
2023/07/19 01:21:12;;;;;;;35.45;33.05;;;17.10;89.60;;;;;;5104409;28;20028;-72
2023/07/19 01:23:39;;;;;;;36.97;34.40;;;17.00;90.10;;;;;;5102202;28;20097;-73
2023/07/19 01:26:04;;;;;;;35.28;33.10;;;17.00;90.30;;;;;;5104075;28;20032;-73
2023/07/19 01:28:30;;;;;;;40.08;37.67;;;16.90;90.30;;;;;;5108062;28;20515;-72
2023/07/19 01:30:55;;;;;;;45.08;42.58;;;16.90;90.40;;;;;;5107820;28;20027;-72
2023/07/19 01:33:21;;;;;;;50.20;47.22;;;16.90;90.50;;;;;;5110665;28;20027;-72
2023/07/19 01:35:47;;;;;;;46.50;43.83;;;16.90;90.60;;;;;;5112272;27;20069;-73
2023/07/19 01:38:12;;;;;;;62.08;58.63;;;16.80;90.50;;;;;;5087952;28;20039;-73
2023/07/19 01:40:38;;;;;;;53.60;50.38;;;16.70;90.60;;;;;;5106560;28;20572;-72
2023/07/19 01:43:04;;;;;;;48.45;45.78;;;16.80;90.50;;;;;;5103913;28;20543;-73
2023/07/19 01:45:29;;;;;;;64.15;60.95;;;16.80;90.60;;;;;;5107407;27;20562;-73
2023/07/19 01:47:55;;;;;;;81.18;77.35;;;16.80;90.80;;;;;;5106975;28;20085;-74
2023/07/19 01:50:20;;;;;;;89.82;85.93;;;16.80;91.60;;;;;;5109742;27;20105;-73
2023/07/19 01:52:46;;;;;;;106.43;101.18;;;16.90;91.40;;;;;;5107392;28;20082;-73
2023/07/19 01:55:12;;;;;;;115.95;110.50;;;16.90;91.40;;;;;;5094088;28;20111;-73
2023/07/19 01:57:38;;;;;;;107.32;102.55;;;16.90;91.50;;;;;;5109150;28;20035;-74
2023/07/19 02:00:04;;;;;;;96.88;92.30;;;16.90;91.80;;;;;;5106516;28;20066;-74
2023/07/19 02:02:30;;;;;;;82.13;77.95;;;16.90;91.50;;;;;;5107115;28;20118;-74
2023/07/19 02:04:55;;;;;;;94.05;89.47;;;16.90;91.60;;;;;;5108337;28;20193;-74
2023/07/19 02:07:21;;;;;;;92.22;87.57;;;16.80;91.60;;;;;;5108354;28;20059;-74
2023/07/19 02:09:47;;;;;;;95.85;91.22;;;16.70;91.60;;;;;;5109262;28;20074;-74
2023/07/19 02:12:12;;;;;;;94.25;89.75;;;16.80;91.70;;;;;;5109438;28;20024;-73
2023/07/19 02:14:38;;;;;;;96.90;92.28;;;16.70;91.70;;;;;;5108957;28;20032;-74
2023/07/19 02:17:04;;;;;;;98.13;92.32;;;16.80;91.80;;;;;;5105359;28;20023;-74
2023/07/19 02:19:30;;;;;;;103.78;99.03;;;16.70;91.80;;;;;;5107882;28;20409;-74
2023/07/19 02:21:56;;;;;;;114.45;108.88;;;16.70;91.70;;;;;;5112234;28;20043;-73
2023/07/19 02:24:21;;;;;;;106.28;101.18;;;16.60;91.70;;;;;;5109240;28;20039;-73
2023/07/19 02:26:47;;;;;;;116.57;111.22;;;16.60;91.80;;;;;;5087810;28;20032;-74
2023/07/19 02:29:12;;;;;;;114.20;109.03;;;16.60;91.90;;;;;;5106179;28;20035;-74
2023/07/19 02:31:39;;;;;;;120.88;115.57;;;16.50;92.00;;;;;;5091791;28;20555;-74
2023/07/19 02:34:06;;;;;;;130.65;125.05;;;16.50;92.10;;;;;;5103227;28;20051;-74
2023/07/19 02:36:34;;;;;;;125.80;120.28;;;16.50;92.30;;;;;;5107178;28;20034;-74
2023/07/19 02:39:01;;;;;;;135.68;129.88;;;16.60;92.40;;;;;;5105666;28;20086;-74
2023/07/19 02:41:26;;;;;;;108.78;103.50;;;16.60;92.20;;;;;;5103268;28;20043;-74
2023/07/19 02:43:52;;;;;;;98.82;94.18;;;16.60;92.20;;;;;;5109140;28;20032;-74
2023/07/19 02:46:18;;;;;;;110.63;105.35;;;16.60;92.40;;;;;;5107542;28;20410;-74
2023/07/19 02:48:43;;;;;;;115.22;109.55;;;16.60;92.20;;;;;;5091405;28;20032;-73
2023/07/19 02:51:09;;;;;;;117.10;111.25;;;16.50;92.30;;;;;;5108189;28;20028;-74
2023/07/19 02:53:35;;;;;;;111.20;105.97;;;16.50;92.40;;;;;;5088037;28;20036;-74
2023/07/19 02:56:01;;;;;;;114.28;108.60;;;16.50;92.60;;;;;;5101469;28;20020;-74
2023/07/19 02:58:27;;;;;;;109.15;103.97;;;16.60;92.50;;;;;;5104079;28;20575;-74
2023/07/19 03:00:53;;;;;;;105.18;100.03;;;16.60;92.50;;;;;;5086296;28;20394;-74
2023/07/19 03:03:19;;;;;;;96.65;91.90;;;16.60;92.50;;;;;;5087547;28;20114;-74
2023/07/19 03:05:45;;;;;;;101.68;96.78;;;16.60;92.50;;;;;;5105568;28;20107;-74
2023/07/19 03:08:11;;;;;;;89.20;85.05;;;16.60;92.40;;;;;;5104450;28;20028;-74
2023/07/19 03:10:38;;;;;;;93.43;88.82;;;16.60;92.80;;;;;;5106806;28;20035;-74
2023/07/19 03:13:04;;;;;;;88.80;84.40;;;16.60;92.30;;;;;;5108552;28;20077;-74
2023/07/19 03:15:33;;;;;;;90.90;86.50;;;16.60;92.40;;;;;;5106164;28;20101;-74
2023/07/19 03:18:00;;;;;;;85.50;81.25;;;16.60;92.50;;;;;;5107428;27;20119;-74
2023/07/19 03:20:27;;;;;;;90.93;86.18;;;16.60;92.50;;;;;;5108390;28;20448;-74
2023/07/19 03:22:57;;;;;;;88.93;84.72;;;16.60;92.60;;;;;;5106133;28;20039;-73
2023/07/19 03:25:23;;;;;;;97.18;92.00;;;16.60;92.60;;;;;;5105663;28;20032;-74
2023/07/19 03:27:50;;;;;;;103.40;98.47;;;16.50;92.60;;;;;;5104941;28;20081;-74
2023/07/19 03:30:15;;;;;;;90.45;85.70;;;16.60;92.80;;;;;;5106060;28;20154;-74
2023/07/19 03:32:41;;;;;;;84.63;79.95;;;16.60;92.80;;;;;;5105299;28;20142;-74
2023/07/19 03:35:07;;;;;;;85.20;80.72;;;16.60;92.80;;;;;;5105513;28;20039;-74
2023/07/19 03:37:36;;;;;;;79.75;75.07;;;16.60;92.70;;;;;;5108287;28;20051;-74
2023/07/19 03:40:04;;;;;;;78.30;74.43;;;16.60;92.60;;;;;;5107631;28;20031;-74
2023/07/19 03:42:30;;;;;;;61.22;57.75;;;16.70;92.70;;;;;;5108302;28;20036;-74
2023/07/19 03:44:56;;;;;;;84.78;80.55;;;16.70;92.50;;;;;;5109413;28;20512;-74
2023/07/19 03:47:22;;;;;;;74.18;70.45;;;16.70;92.50;;;;;;5107060;28;20032;-74
2023/07/19 03:49:47;;;;;;;82.53;78.00;;;16.80;92.50;;;;;;5109449;28;20035;-74
2023/07/19 03:52:13;;;;;;;72.50;68.13;;;16.80;92.30;;;;;;5090268;28;20133;-74
2023/07/19 03:54:39;;;;;;;74.07;70.18;;;16.90;92.20;;;;;;5091717;27;20031;-74
2023/07/19 03:57:04;;;;;;;72.25;68.68;;;16.90;92.00;;;;;;5106899;28;20397;-74
2023/07/19 03:59:30;;;;;;;70.28;66.50;;;16.90;92.00;;;;;;5109074;28;20508;-75
2023/07/19 04:01:56;;;;;;;69.82;65.97;;;16.90;91.90;;;;;;5092574;28;20035;-73
2023/07/19 04:04:21;;;;;;;61.03;57.42;;;16.80;91.90;;;;;;5106650;28;20557;-73
2023/07/19 04:06:47;;;;;;;70.65;66.85;;;16.80;91.70;;;;;;5088619;28;20059;-73
2023/07/19 04:09:13;;;;;;;78.25;73.63;;;16.90;91.90;;;;;;5105071;28;20077;-73
2023/07/19 04:11:38;;;;;;;71.47;67.50;;;16.80;91.80;;;;;;5107647;28;20035;-73
2023/07/19 04:14:04;;;;;;;70.03;65.90;;;16.80;91.80;;;;;;5089558;28;20031;-73
2023/07/19 04:16:29;;;;;;;69.45;65.20;;;16.80;91.70;;;;;;5106467;27;20034;-72
2023/07/19 04:18:55;;;;;;;72.22;68.22;;;16.80;91.80;;;;;;5105722;28;20054;-73
2023/07/19 04:21:21;;;;;;;69.88;66.07;;;16.70;91.80;;;;;;5106328;28;20042;-71
2023/07/19 04:23:46;;;;;;;71.38;67.72;;;16.80;91.80;;;;;;5104521;28;20035;-71
2023/07/19 04:26:12;;;;;;;67.53;62.92;;;17.00;91.70;;;;;;5106555;28;20084;-70
2023/07/19 04:28:38;;;;;;;71.68;67.57;;;17.00;91.40;;;;;;5106443;28;20032;-70
2023/07/19 04:31:03;;;;;;;66.90;63.03;;;17.10;91.20;;;;;;5107959;27;20028;-70
2023/07/19 04:33:30;;;;;;;68.90;65.00;;;17.10;91.00;;;;;;5107159;28;20115;-70
2023/07/19 04:35:56;;;;;;;69.15;65.05;;;17.10;91.30;;;;;;5106939;28;20355;-73
2023/07/19 04:38:22;;;;;;;66.63;63.30;;;17.30;90.90;;;;;;5089228;28;20101;-73
2023/07/19 04:40:47;;;;;;;70.70;66.88;;;17.30;90.90;;;;;;5107035;28;20075;-72
2023/07/19 04:43:13;;;;;;;70.53;66.85;;;17.50;90.70;;;;;;5104919;28;20085;-75
2023/07/19 04:45:43;;;;;;;69.65;66.10;;;17.60;90.50;;;;;;5085789;28;20460;-73
2023/07/19 04:48:09;;;;;;;70.25;66.13;;;17.70;90.40;;;;;;5088010;28;20492;-74
2023/07/19 04:50:34;;;;;;;52.55;49.67;;;17.70;90.40;;;;;;5101725;28;20107;-74
2023/07/19 04:53:00;;;;;;;65.10;61.67;;;17.70;90.20;;;;;;5107383;28;20038;-74
2023/07/19 04:55:26;;;;;;;50.58;47.20;;;17.60;89.90;;;;;;5086218;28;20106;-74
2023/07/19 04:57:51;;;;;;;37.88;35.08;;;17.70;89.60;;;;;;5105019;28;20389;-74
2023/07/19 05:00:17;;;;;;;31.60;29.13;;;17.80;89.00;;;;;;5105396;28;20032;-74
2023/07/19 05:02:43;;;;;;;31.50;28.98;;;17.90;88.40;;;;;;5106722;28;20763;-73
2023/07/19 05:05:12;;;;;;;29.48;27.30;;;18.00;87.20;;;;;;5111387;28;20085;-73
2023/07/19 05:07:38;;;;;;;36.30;34.10;;;18.20;86.90;;;;;;5110976;28;20035;-73
2023/07/19 05:10:04;;;;;;;43.65;40.95;;;18.30;87.40;;;;;;5094784;28;20608;-73
2023/07/19 05:12:31;;;;;;;30.17;28.05;;;18.30;87.40;;;;;;5110995;28;20066;-73
2023/07/19 05:14:57;;;;;;;28.38;26.27;;;18.40;85.90;;;;;;5093798;28;20042;-74
2023/07/19 05:17:23;;;;;;;28.23;26.17;;;18.50;85.20;;;;;;5108143;28;20061;-73
2023/07/19 05:19:49;;;;;;;28.38;26.17;;;18.60;84.30;;;;;;5106815;28;20039;-73
2023/07/19 05:22:15;;;;;;;29.98;27.77;;;18.70;85.80;;;;;;5109038;28;20080;-73
2023/07/19 05:24:40;;;;;;;29.67;27.73;;;18.70;85.10;;;;;;5107068;28;20028;-73
2023/07/19 05:27:06;;;;;;;29.60;27.05;;;18.80;85.70;;;;;;5106298;28;20122;-72
2023/07/19 05:29:33;;;;;;;29.80;27.67;;;18.90;84.90;;;;;;5109717;27;20036;-74
2023/07/19 05:31:59;;;;;;;27.75;25.63;;;18.90;84.80;;;;;;5102212;28;20020;-78
2023/07/19 05:34:25;;;;;;;28.08;26.08;;;18.90;85.70;;;;;;5076241;28;20508;-77
2023/07/19 05:36:51;;;;;;;29.02;26.80;;;18.90;85.10;;;;;;5106941;28;20039;-77
2023/07/19 05:39:17;;;;;;;28.17;26.25;;;19.00;84.70;;;;;;5083617;28;20103;-76
2023/07/19 05:41:43;;;;;;;23.88;22.02;;;18.90;83.00;;;;;;5112617;28;20038;-77
2023/07/19 05:44:08;;;;;;;27.80;25.70;;;19.00;82.00;;;;;;5120662;27;20055;-75
2023/07/19 05:46:37;;;;;;;23.80;21.67;;;19.10;82.90;;;;;;5118560;27;20032;-76
2023/07/19 05:49:03;;;;;;;27.27;25.10;;;19.20;80.80;;;;;;5090726;28;20027;-77
2023/07/19 05:51:29;;;;;;;22.55;20.85;;;19.20;81.80;;;;;;5110741;28;20027;-77
2023/07/19 05:53:55;;;;;;;22.52;20.83;;;19.30;80.40;;;;;;5111016;28;20497;-76
2023/07/19 05:56:21;;;;;;;21.75;20.00;;;19.40;80.30;;;;;;5106834;28;20119;-76
2023/07/19 05:58:48;;;;;;;23.80;21.90;;;19.60;79.70;;;;;;5104226;27;20485;-77
2023/07/19 06:01:17;;;;;;;25.42;23.30;;;19.60;77.10;;;;;;5109818;28;20024;-76
2023/07/19 06:03:44;;;;;;;24.50;22.60;;;19.80;76.90;;;;;;5105472;28;20028;-76
2023/07/19 06:06:09;;;;;;;21.63;19.88;;;19.90;77.40;;;;;;5105669;28;20031;-77
2023/07/19 06:08:36;;;;;;;24.85;22.90;;;20.00;79.30;;;;;;5106551;28;20038;-76
2023/07/19 06:11:02;;;;;;;25.30;23.40;;;19.90;76.80;;;;;;5090015;28;20544;-76
2023/07/19 06:13:27;;;;;;;22.92;21.23;;;19.90;76.60;;;;;;5108290;28;20118;-76
2023/07/19 06:15:54;;;;;;;21.77;20.08;;;20.10;77.10;;;;;;5102634;28;20019;-76
2023/07/19 06:18:19;;;;;;;21.42;19.95;;;20.20;75.70;;;;;;5092359;28;20036;-76
2023/07/19 06:20:48;;;;;;;21.83;20.05;;;20.30;74.00;;;;;;5090592;28;20038;-77
2023/07/19 06:23:14;;;;;;;22.08;20.20;;;20.50;75.10;;;;;;5109662;28;20032;-76
2023/07/19 06:25:40;;;;;;;24.50;22.58;;;20.50;74.10;;;;;;5105666;28;20499;-75
2023/07/19 06:28:06;;;;;;;23.02;21.23;;;20.60;74.80;;;;;;5110963;28;20028;-75
2023/07/19 06:30:32;;;;;;;21.77;20.27;;;20.60;76.50;;;;;;5107740;28;20049;-75
2023/07/19 06:32:57;;;;;;;22.08;20.45;;;20.70;74.50;;;;;;5109527;28;20217;-75
2023/07/19 06:35:23;;;;;;;20.70;18.80;;;20.80;73.90;;;;;;5090897;28;20123;-74
2023/07/19 06:37:49;;;;;;;20.98;19.15;;;20.90;71.60;;;;;;5088911;28;20451;-75
2023/07/19 06:40:15;;;;;;;20.00;18.15;;;21.10;71.90;;;;;;5108593;28;20074;-75
2023/07/19 06:42:42;;;;;;;19.23;17.65;;;21.20;69.70;;;;;;5088916;28;20032;-75
2023/07/19 06:45:09;;;;;;;19.00;17.60;;;21.30;69.00;;;;;;5089756;28;20028;-75
2023/07/19 06:47:34;;;;;;;18.15;16.77;;;21.50;67.80;;;;;;5106050;28;20785;-75
2023/07/19 06:50:00;;;;;;;18.40;16.77;;;21.50;66.10;;;;;;5107149;28;20110;-75
2023/07/19 06:52:26;;;;;;;20.90;19.13;;;21.60;66.30;;;;;;5109199;28;20032;-74
2023/07/19 06:54:52;;;;;;;19.20;17.63;;;21.80;65.60;;;;;;5092653;28;20362;-75
2023/07/19 06:57:20;;;;;;;18.05;16.40;;;22.10;66.70;;;;;;5106779;28;20028;-74
2023/07/19 06:59:48;;;;;;;19.90;18.20;;;22.20;67.10;;;;;;5106118;28;20081;-75
2023/07/19 07:02:13;;;;;;;18.42;17.15;;;22.40;64.90;;;;;;5107050;28;20020;-74
2023/07/19 07:04:39;;;;;;;18.45;17.05;;;22.50;62.30;;;;;;5090941;28;20031;-74
2023/07/19 07:07:05;;;;;;;15.30;14.20;;;22.60;61.80;;;;;;5109316;28;20044;-74
2023/07/19 07:09:30;;;;;;;16.92;15.18;;;22.60;56.60;;;;;;5109853;28;20520;-75
2023/07/19 07:11:57;;;;;;;16.55;15.10;;;22.60;58.50;;;;;;5089865;28;20039;-74
2023/07/19 07:14:22;;;;;;;16.15;14.95;;;22.50;58.00;;;;;;5090419;28;20038;-75
2023/07/19 07:16:48;;;;;;;16.45;15.05;;;22.50;57.40;;;;;;5089182;28;20031;-75
2023/07/19 07:19:14;;;;;;;17.08;15.45;;;22.60;60.00;;;;;;5071477;28;20031;-74
2023/07/19 07:21:40;;;;;;;14.98;13.70;;;22.50;58.70;;;;;;5106344;28;20036;-74
2023/07/19 07:24:06;;;;;;;13.48;12.63;;;22.40;55.70;;;;;;5107719;28;20057;-74
2023/07/19 07:26:33;;;;;;;15.13;13.95;;;22.50;55.70;;;;;;5108205;28;20032;-75
2023/07/19 07:28:58;;;;;;;16.27;15.05;;;22.60;56.50;;;;;;5087079;28;20068;-75
2023/07/19 07:31:24;;;;;;;16.08;14.98;;;23.00;56.40;;;;;;5107447;28;20065;-75
2023/07/19 07:33:49;;;;;;;16.65;15.48;;;23.40;54.60;;;;;;5107266;27;20417;-74
2023/07/19 07:36:15;;;;;;;15.10;14.07;;;23.70;53.00;;;;;;5107422;28;20645;-75
2023/07/19 07:38:41;;;;;;;17.02;15.60;;;23.80;53.00;;;;;;5082940;28;20043;-75
2023/07/19 07:41:06;;;;;;;16.27;15.27;;;24.00;51.20;;;;;;5088364;28;20110;-75
2023/07/19 07:43:32;;;;;;;16.00;14.70;;;23.80;50.40;;;;;;5088191;28;20031;-75
2023/07/19 07:45:58;;;;;;;19.10;17.70;;;24.10;52.60;;;;;;5107909;28;20102;-75
2023/07/19 07:48:25;;;;;;;23.40;22.02;;;24.40;49.00;;;;;;5105675;28;20477;-75
2023/07/19 07:50:51;;;;;;;16.60;15.38;;;24.40;48.20;;;;;;5088676;28;20046;-75
2023/07/19 07:53:21;;;;;;;17.33;15.52;;;24.40;50.10;;;;;;5107022;28;20038;-75
2023/07/19 07:55:48;;;;;;;16.50;15.35;;;24.50;48.70;;;;;;5084913;28;20030;-76
2023/07/19 07:58:14;;;;;;;16.77;15.38;;;24.60;49.40;;;;;;5105443;28;20072;-75
2023/07/19 08:00:41;;;;;;;20.60;19.17;;;24.30;48.60;;;;;;5088441;28;20027;-75
2023/07/19 08:03:06;;;;;;;17.77;16.17;;;24.10;44.80;;;;;;5107655;28;20558;-75
2023/07/19 08:05:32;;;;;;;18.15;16.98;;;24.00;47.30;;;;;;5105075;28;20040;-75
2023/07/19 08:07:58;;;;;;;16.73;15.52;;;24.10;47.10;;;;;;5106154;28;20035;-75
2023/07/19 08:10:24;;;;;;;17.40;16.10;;;24.10;47.70;;;;;;5085599;28;20036;-75
2023/07/19 08:12:49;;;;;;;17.60;16.15;;;24.40;47.60;;;;;;5086696;28;20047;-75
2023/07/19 08:15:15;;;;;;;17.45;16.20;;;24.40;47.50;;;;;;5109230;27;20028;-74
2023/07/19 08:17:41;;;;;;;19.23;17.67;;;24.60;48.90;;;;;;5104637;28;20032;-75
2023/07/19 08:20:09;;;;;;;17.33;15.80;;;24.70;46.40;;;;;;5104199;28;20027;-75
2023/07/19 08:22:37;;;;;;;17.92;16.67;;;24.70;48.20;;;;;;5107013;27;20026;-75
2023/07/19 08:25:04;;;;;;;20.33;18.90;;;24.60;46.80;;;;;;5102885;28;20085;-75
2023/07/19 08:27:30;;;;;;;20.20;18.70;;;25.10;45.00;;;;;;5106187;27;20114;-75
2023/07/19 08:29:55;;;;;;;20.85;19.65;;;25.10;43.80;;;;;;5086958;28;20107;-75
2023/07/19 08:32:21;;;;;;;23.52;21.90;;;25.40;43.20;;;;;;5087218;28;20024;-75
2023/07/19 08:34:47;;;;;;;28.83;27.23;;;25.60;40.20;;;;;;5085167;28;20043;-75
2023/07/19 08:37:12;;;;;;;47.15;44.80;;;25.50;39.80;;;;;;5084004;28;20044;-75
2023/07/19 08:39:38;;;;;;;37.55;35.80;;;25.50;38.40;;;;;;5103063;28;20027;-75
2023/07/19 08:42:04;;;;;;;32.35;30.83;;;25.30;38.50;;;;;;5101463;27;20028;-75
2023/07/19 08:44:30;;;;;;;43.28;40.83;;;25.50;36.80;;;;;;5085154;28;20031;-75
2023/07/19 08:46:56;;;;;;;35.67;34.05;;;25.30;36.90;;;;;;5106047;28;20031;-74
2023/07/19 08:49:22;;;;;;;39.83;38.00;;;25.10;36.80;;;;;;5102523;28;20127;-75
2023/07/19 08:51:48;;;;;;;40.13;38.22;;;25.10;38.20;;;;;;5086850;28;20111;-75
2023/07/19 08:54:14;;;;;;;35.90;34.17;;;25.00;37.50;;;;;;5106935;28;20027;-74
2023/07/19 08:56:41;;;;;;;38.22;35.70;;;25.00;37.50;;;;;;5103761;28;20027;-75
2023/07/19 08:59:07;;;;;;;39.00;37.25;;;25.40;39.30;;;;;;5089492;28;20070;-75
2023/07/19 09:01:33;;;;;;;34.10;31.85;;;25.50;37.90;;;;;;5108191;28;20040;-75
2023/07/19 09:03:59;;;;;;;38.72;36.50;;;25.90;38.40;;;;;;5108363;28;20032;-74
2023/07/19 09:06:28;;;;;;;34.35;32.63;;;25.70;37.10;;;;;;5092798;28;20039;-75
2023/07/19 09:08:55;;;;;;;39.85;37.67;;;25.60;36.30;;;;;;5089004;28;20028;-74
2023/07/19 09:11:25;;;;;;;39.50;37.50;;;25.70;36.90;;;;;;5093580;28;20531;-74
2023/07/19 09:13:55;;;;;;;43.42;41.17;;;26.00;38.30;;;;;;5109678;28;20054;-75
2023/07/19 09:16:32;;;;;;;61.05;58.47;;;26.20;37.50;;;;;;5089535;28;20463;-74
2023/07/19 09:18:59;;;;;;;82.30;77.22;;;26.10;35.50;;;;;;5087046;28;20024;-75
2023/07/19 09:21:46;;;;;;;93.40;87.50;;;26.20;35.20;;;;;;5104645;28;20031;-75
2023/07/19 09:24:12;;;;;;;66.82;63.28;;;26.40;35.20;;;;;;5109321;28;20055;-75
2023/07/19 09:26:47;;;;;;;41.50;39.25;;;26.60;36.00;;;;;;5105015;28;20448;-75
2023/07/19 09:29:13;;;;;;;42.95;40.95;;;26.90;34.10;;;;;;5105645;28;20036;-75
2023/07/19 09:32:01;;;;;;;58.75;56.28;;;27.10;36.00;;;;;;5088203;28;20145;-75
2023/07/19 09:34:35;;;;;;;125.93;120.82;;;27.60;33.90;;;;;;5104664;28;20078;-75
2023/07/19 09:37:02;;;;;;;104.90;100.88;;;26.70;33.00;;;;;;5105881;28;20502;-76
2023/07/19 09:39:29;;;;;;;121.28;116.60;;;26.20;35.10;;;;;;5106664;28;20032;-76
2023/07/19 09:41:57;;;;;;;175.10;167.85;;;26.10;35.80;;;;;;5107124;28;20114;-75
2023/07/19 09:44:23;;;;;;;115.97;110.63;;;26.50;34.70;;;;;;5108208;28;20370;-76
2023/07/19 09:46:48;;;;;;;121.78;117.03;;;27.00;36.10;;;;;;5106500;28;20031;-76
2023/07/19 09:49:14;;;;;;;147.43;141.48;;;27.40;33.40;;;;;;5107614;28;20040;-75
2023/07/19 09:51:41;;;;;;;107.57;103.03;;;27.00;33.80;;;;;;5110973;28;20043;-75
2023/07/19 09:54:09;;;;;;;112.22;108.07;;;26.80;33.50;;;;;;5108339;27;20028;-76
2023/07/19 09:56:36;;;;;;;109.60;105.43;;;25.90;34.70;;;;;;5091498;28;20032;-75
2023/07/19 09:59:04;;;;;;;50.35;48.15;;;25.90;35.20;;;;;;5109435;28;20492;-76
2023/07/19 10:01:30;;;;;;;94.03;90.15;;;26.30;34.70;;;;;;5109058;28;20505;-72
2023/07/19 10:03:59;;;;;;;58.08;55.15;;;26.20;36.10;;;;;;5110069;28;20517;-72
2023/07/19 10:06:31;;;;;;;83.85;80.25;;;26.70;34.70;;;;;;5109418;28;20036;-72
2023/07/19 10:09:21;;;;;;;112.45;107.80;;;26.90;34.50;;;;;;5107234;27;20035;-72
2023/07/19 10:11:49;;;;;;;46.97;44.67;;;27.20;33.50;;;;;;5108143;28;20525;-72
2023/07/19 10:14:25;;;;;;;104.22;100.20;;;27.20;33.90;;;;;;5107791;28;20067;-73
2023/07/19 10:16:58;;;;;;;72.07;69.03;;;27.40;32.80;;;;;;5107369;28;20073;-72
2023/07/19 10:19:25;;;;;;;107.55;103.55;;;27.30;33.50;;;;;;5109317;28;20085;-72
2023/07/19 10:22:07;;;;;;;83.57;80.03;;;27.10;32.90;;;;;;5103788;28;20020;-72
2023/07/19 10:24:38;;;;;;;86.25;82.75;;;27.40;33.90;;;;;;5107008;28;20059;-75
2023/07/19 10:27:06;;;;;;;115.72;110.90;;;27.30;32.20;;;;;;5105567;28;20084;-75
2023/07/19 10:30:03;;;;;;;110.05;105.80;;;27.50;32.70;;;;;;5104552;28;20150;-74
2023/07/19 10:32:29;;;;;;;93.90;90.05;;;27.20;33.90;;;;;;5101245;28;20082;-74
2023/07/19 10:34:54;;;;;;;101.88;97.30;;;27.80;32.90;;;;;;5107780;28;20809;-74
2023/07/19 10:37:22;;;;;;;122.35;117.47;;;27.80;31.80;;;;;;5103781;28;20509;-74
2023/07/19 10:39:48;;;;;;;116.93;111.60;;;28.10;32.10;;;;;;5107160;28;20035;-75
2023/07/19 10:42:14;;;;;;;82.03;78.78;;;28.20;32.60;;;;;;5108070;28;20027;-74
2023/07/19 10:44:40;;;;;;;89.78;86.35;;;27.90;32.70;;;;;;5090275;28;20055;-76
2023/07/19 10:47:06;;;;;;;113.95;109.43;;;28.30;33.40;;;;;;5107525;28;20382;-76
2023/07/19 10:49:32;;;;;;;122.85;118.03;;;28.40;32.70;;;;;;5107145;28;20097;-76
2023/07/19 10:51:58;;;;;;;90.95;87.38;;;28.50;33.40;;;;;;5106802;28;20043;-75
2023/07/19 10:54:25;;;;;;;102.40;98.35;;;28.40;32.00;;;;;;5088980;28;20379;-76
2023/07/19 10:56:52;;;;;;;150.50;142.65;;;29.00;32.30;;;;;;5104547;28;20032;-76
2023/07/19 10:59:18;;;;;;;79.35;76.13;;;28.50;30.50;;;;;;5088856;28;20428;-76
2023/07/19 11:01:46;;;;;;;138.95;133.65;;;28.60;31.20;;;;;;5088362;28;20059;-74
2023/07/19 11:04:12;;;;;;;173.25;166.70;;;29.50;31.10;;;;;;5109779;28;20081;-73
2023/07/19 11:06:51;;;;;;;297.15;286.35;;;30.10;29.50;;;;;;5092038;28;20032;-73
2023/07/19 11:09:18;;;;;;;359.08;344.80;;;30.70;28.00;;;;;;5108496;28;20032;-73
2023/07/19 11:11:45;;;;;;;350.63;337.05;;;30.10;29.10;;;;;;5103105;28;20032;-73
2023/07/19 11:14:30;;;;;;;1999.90;999.90;;;30.40;29.30;;;;;;5107669;28;20071;-73
2023/07/19 11:16:56;;;;;;;1554.35;802.20;;;30.60;29.60;;;;;;5088261;28;20023;-73
2023/07/19 11:19:34;;;;;;;1999.90;999.90;;;31.50;27.90;;;;;;5107827;27;20020;-73
2023/07/19 11:21:59;;;;;;;1999.90;999.90;;;30.90;26.90;;;;;;5102204;28;20505;-73
2023/07/19 11:24:36;;;;;;;1999.90;999.90;;;30.70;26.50;;;;;;5086059;28;20055;-73
2023/07/19 11:27:02;;;;;;;307.80;294.70;;;30.50;27.20;;;;;;5100793;28;20521;-72
2023/07/19 11:29:32;;;;;;;409.60;392.88;;;29.30;28.20;;;;;;5106445;28;20117;-73
2023/07/19 11:32:16;;;;;;;1999.90;999.90;;;30.00;29.50;;;;;;5106868;28;20031;-73
2023/07/19 11:34:46;;;;;;;1999.90;999.90;;;31.50;28.10;;;;;;5104743;28;20027;-73
2023/07/19 11:37:26;;;;;;;1999.90;999.90;;;32.20;26.70;;;;;;5105954;28;20048;-73
2023/07/19 11:39:52;;;;;;;;;;;31.80;26.80;;;;;;5104814;28;20429;-75
2023/07/19 11:42:43;;;;;;;1999.90;999.90;;;30.90;26.80;;;;;;5105098;28;20285;-73
2023/07/19 11:45:20;;;;;;;1999.90;999.90;;;31.60;27.10;;;;;;5102698;28;20023;-73
2023/07/19 11:47:49;;;;;;;1999.90;999.90;;;29.60;28.00;;;;;;5107289;28;20110;-73
2023/07/19 11:50:15;;;;;;;228.98;218.68;;;29.70;31.30;;;;;;5108023;28;20043;-73
2023/07/19 11:52:49;;;;;;;1999.90;999.90;;;30.30;30.50;;;;;;5106411;28;20059;-73
2023/07/19 11:55:16;;;;;;;1999.90;999.90;;;31.30;26.80;;;;;;5107596;28;20032;-73
2023/07/19 11:57:43;;;;;;;1999.90;999.90;;;31.50;26.40;;;;;;5109146;28;20099;-73
2023/07/19 12:00:10;;;;;;;1999.90;999.90;;;31.30;27.50;;;;;;5107152;27;20035;-73
2023/07/19 12:02:37;;;;;;;1999.90;999.90;;;32.10;26.90;;;;;;5109168;28;20168;-73
2023/07/19 12:05:04;;;;;;;1999.90;999.90;;;31.70;25.50;;;;;;5106474;28;20016;-72
2023/07/19 12:07:31;;;;;;;1999.90;999.90;;;32.40;26.00;;;;;;5105926;27;20024;-75
2023/07/19 12:09:58;;;;;;;1999.90;999.90;;;32.50;25.30;;;;;;5100153;28;20835;-76
2023/07/19 12:12:24;;;;;;;1999.90;999.90;;;32.40;26.10;;;;;;5103273;28;20027;-77
2023/07/19 12:14:49;;;;;;;1999.90;999.90;;;33.30;25.80;;;;;;5086731;28;20508;-76
2023/07/19 12:17:15;;;;;;;1999.90;999.90;;;33.50;27.20;;;;;;5108454;28;20099;-77
2023/07/19 12:19:41;;;;;;;1999.90;999.90;;;35.20;23.30;;;;;;5069420;28;20032;-77